createdAt,value
2023-05-04T00:02:13.674Z,20.66
2023-05-04T00:04:43.163Z,20.75
2023-05-04T00:07:11.182Z,20.85
2023-05-04T00:09:39.586Z,20.78
2023-05-04T00:12:08.308Z,20.91
2023-05-04T00:14:37.417Z,20.51
2023-05-04T00:17:07.039Z,20.52
2023-05-04T00:19:36.453Z,20.52
2023-05-04T00:22:04.459Z,20.40
2023-05-04T00:24:32.774Z,20.23
2023-05-04T00:27:00.711Z,20.18
2023-05-04T00:29:29.044Z,20.20
2023-05-04T00:31:57.255Z,20.32
2023-05-04T00:34:25.912Z,20.10
2023-05-04T00:36:53.856Z,20.38
2023-05-04T00:39:22.240Z,20.00
2023-05-04T00:41:50.688Z,20.14
2023-05-04T00:44:19.177Z,20.22
2023-05-04T00:46:47.237Z,20.17
2023-05-04T00:49:16.011Z,20.25
2023-05-04T00:51:44.194Z,20.08
2023-05-04T00:54:13.075Z,19.83
2023-05-04T00:56:43.526Z,19.88
2023-05-04T00:59:13.960Z,19.79
2023-05-04T01:01:42.432Z,19.73
2023-05-04T01:04:11.423Z,19.74
2023-05-04T01:06:48.183Z,19.86
2023-05-04T01:09:28.584Z,19.74
2023-05-04T01:12:14.133Z,19.85
2023-05-04T01:14:43.958Z,20.04
2023-05-04T01:17:12.155Z,19.78
2023-05-04T01:19:40.553Z,19.79
2023-05-04T01:22:08.513Z,19.69
2023-05-04T01:24:37.153Z,19.61
2023-05-04T01:27:42.529Z,19.62
2023-05-04T01:30:26.747Z,19.55
2023-05-04T01:32:55.249Z,19.41
2023-05-04T01:35:23.880Z,19.46
2023-05-04T01:37:51.739Z,19.64
2023-05-04T01:40:19.973Z,19.44
2023-05-04T01:42:47.837Z,19.35
2023-05-04T01:45:16.179Z,19.34
2023-05-04T01:47:44.474Z,19.27
2023-05-04T01:50:12.759Z,19.41
2023-05-04T01:52:40.640Z,19.26
2023-05-04T01:55:09.459Z,19.14
2023-05-04T01:57:37.410Z,19.11
2023-05-04T02:00:06.536Z,19.19
2023-05-04T02:02:46.868Z,19.02
2023-05-04T02:05:19.526Z,19.15
2023-05-04T02:07:47.579Z,18.99
2023-05-04T02:10:16.309Z,19.03
2023-05-04T02:12:44.350Z,19.08
2023-05-04T02:15:12.898Z,19.05
2023-05-04T02:17:41.017Z,19.08
2023-05-04T02:20:09.904Z,19.24
2023-05-04T02:22:37.830Z,19.04
2023-05-04T02:25:07.892Z,18.92
2023-05-04T02:27:38.010Z,19.09
2023-05-04T02:30:07.668Z,18.99
2023-05-04T02:32:36.830Z,19.24
2023-05-04T02:35:05.561Z,19.26
2023-05-04T02:37:33.479Z,19.22
2023-05-04T02:40:04.683Z,19.09
2023-05-04T02:42:32.749Z,19.20
2023-05-04T02:45:01.100Z,19.21
2023-05-04T02:47:29.192Z,19.16
2023-05-04T02:49:57.541Z,18.98
2023-05-04T02:52:25.487Z,19.06
2023-05-04T02:54:54.202Z,18.86
2023-05-04T02:57:22.162Z,19.00
2023-05-04T02:59:50.374Z,19.09
2023-05-04T03:02:18.334Z,19.11
2023-05-04T03:04:46.670Z,19.32
2023-05-04T03:07:14.664Z,19.00
2023-05-04T03:09:44.211Z,18.86
2023-05-04T03:12:13.846Z,18.92
2023-05-04T03:14:42.128Z,18.90
2023-05-04T03:17:10.108Z,19.11
2023-05-04T03:19:38.591Z,19.09
2023-05-04T03:22:07.725Z,18.91
2023-05-04T03:24:37.996Z,18.98
2023-05-04T03:27:06.036Z,19.09
2023-05-04T03:29:37.177Z,19.16
2023-05-04T03:32:05.913Z,18.99
2023-05-04T03:34:34.490Z,18.87
2023-05-04T03:37:05.773Z,18.87
2023-05-04T03:39:34.561Z,19.07
2023-05-04T03:42:02.822Z,18.95
2023-05-04T03:44:31.153Z,18.95
2023-05-04T03:46:59.164Z,18.93
2023-05-04T03:49:28.031Z,18.67
2023-05-04T03:51:56.153Z,18.58
2023-05-04T03:54:24.851Z,18.48
2023-05-04T03:56:53.246Z,18.56
2023-05-04T03:59:21.564Z,18.51
2023-05-04T04:01:49.849Z,18.41
2023-05-04T04:04:18.123Z,18.41
2023-05-04T04:06:46.839Z,18.48
2023-05-04T04:09:16.540Z,18.66
2023-05-04T04:11:44.647Z,18.85
2023-05-04T04:14:13.137Z,18.68
2023-05-04T04:16:41.391Z,18.54
2023-05-04T04:19:09.924Z,18.50
2023-05-04T04:21:37.998Z,18.59
2023-05-04T04:24:06.867Z,18.57
2023-05-04T04:26:35.444Z,18.53
2023-05-04T04:29:04.177Z,18.52
2023-05-04T04:31:32.265Z,18.67
2023-05-04T04:34:01.267Z,18.63
2023-05-04T04:36:29.789Z,18.62
2023-05-04T04:38:58.667Z,18.46
2023-05-04T04:41:26.844Z,18.50
2023-05-04T04:43:55.266Z,18.51
2023-05-04T04:46:23.417Z,18.53
2023-05-04T04:48:53.748Z,18.60
2023-05-04T04:51:22.088Z,18.50
2023-05-04T04:53:51.586Z,18.46
2023-05-04T04:56:19.860Z,18.46
2023-05-04T04:58:48.693Z,18.46
2023-05-04T05:01:18.274Z,18.51
2023-05-04T05:03:47.319Z,18.51
2023-05-04T05:06:15.559Z,18.48
2023-05-04T05:08:44.331Z,18.78
2023-05-04T05:11:13.318Z,19.23
2023-05-04T05:13:41.798Z,19.34
2023-05-04T05:16:09.992Z,19.26
2023-05-04T05:18:38.577Z,19.19
2023-05-04T05:21:07.897Z,19.20
2023-05-04T05:23:36.281Z,19.28
2023-05-04T05:26:04.410Z,19.24
2023-05-04T05:28:33.998Z,19.19
2023-05-04T05:31:02.216Z,19.26
2023-05-04T05:33:30.733Z,19.41
2023-05-04T05:35:58.909Z,19.36
2023-05-04T05:38:27.727Z,19.60
2023-05-04T05:40:55.900Z,19.62
2023-05-04T05:43:24.407Z,19.30
2023-05-04T05:45:52.716Z,19.45
2023-05-04T05:48:21.198Z,19.23
2023-05-04T05:50:49.332Z,19.43
2023-05-04T05:53:18.288Z,19.54
2023-05-04T05:55:47.488Z,20.00
2023-05-04T05:58:15.975Z,19.55
2023-05-04T06:00:44.129Z,19.30
2023-05-04T06:03:12.612Z,19.56
2023-05-04T06:05:40.918Z,19.52
2023-05-04T06:08:09.626Z,19.69
2023-05-04T06:10:37.745Z,19.73
2023-05-04T06:13:06.241Z,20.56
2023-05-04T06:15:35.448Z,20.79
2023-05-04T06:18:04.188Z,21.12
2023-05-04T06:20:32.540Z,21.54
2023-05-04T06:23:00.937Z,21.73
2023-05-04T06:25:29.140Z,22.07
2023-05-04T06:27:57.589Z,22.34
2023-05-04T06:30:25.829Z,22.25
2023-05-04T06:32:54.464Z,22.25
2023-05-04T06:35:22.624Z,22.33
2023-05-04T06:40:25.592Z,22.79
2023-05-04T06:42:54.162Z,23.24
2023-05-04T06:45:22.348Z,23.10
2023-05-04T06:47:51.034Z,22.38
2023-05-04T06:50:19.340Z,21.81
2023-05-04T06:52:47.774Z,22.16
2023-05-04T06:55:15.876Z,22.32
2023-05-04T06:57:44.313Z,22.28
2023-05-04T07:00:12.896Z,22.90
2023-05-04T07:02:41.652Z,23.17
2023-05-04T07:05:10.566Z,22.04
2023-05-04T07:07:39.214Z,22.27
2023-05-04T07:10:07.843Z,22.07
2023-05-04T07:12:36.362Z,21.71
2023-05-04T07:15:04.818Z,21.54
2023-05-04T07:17:33.366Z,21.85
2023-05-04T07:20:03.845Z,22.28
2023-05-04T07:22:33.405Z,21.78
2023-05-04T07:25:01.971Z,21.99
2023-05-04T07:27:30.842Z,22.87
2023-05-04T07:29:58.929Z,22.55
2023-05-04T07:32:27.792Z,22.71
2023-05-04T07:34:56.707Z,23.22
2023-05-04T07:37:25.192Z,22.02
2023-05-04T07:39:53.337Z,22.37
2023-05-04T07:42:24.082Z,23.07
2023-05-04T07:44:52.720Z,22.99
2023-05-04T07:47:21.272Z,22.02
2023-05-04T07:49:49.424Z,22.10
2023-05-04T07:52:17.913Z,22.50
2023-05-04T07:54:46.047Z,22.25
2023-05-04T07:57:14.531Z,23.55
2023-05-04T07:59:42.678Z,23.34
2023-05-04T08:02:11.894Z,23.58
2023-05-04T08:04:40.133Z,23.48
2023-05-04T08:07:08.606Z,23.59
2023-05-04T08:09:36.522Z,23.36
2023-05-04T08:12:04.937Z,23.45
2023-05-04T08:14:34.142Z,23.05
2023-05-04T08:17:03.232Z,22.61
2023-05-04T08:19:31.323Z,22.27
2023-05-04T08:22:00.774Z,23.00
2023-05-04T08:24:28.644Z,23.22
2023-05-04T08:27:07.255Z,22.63
2023-05-04T08:29:38.016Z,22.68
2023-05-04T08:32:06.468Z,23.10
2023-05-04T08:34:34.682Z,23.74
2023-05-04T08:37:02.862Z,23.46
2023-05-04T08:39:30.804Z,23.62
2023-05-04T08:41:59.227Z,22.80
2023-05-04T08:44:27.238Z,23.23
2023-05-04T08:46:57.444Z,22.85
2023-05-04T08:49:25.272Z,23.52
2023-05-04T08:51:53.557Z,24.06
2023-05-04T08:54:22.763Z,23.99
2023-05-04T08:56:55.467Z,23.53
2023-05-04T08:59:25.615Z,23.09
2023-05-04T09:01:57.729Z,23.38
2023-05-04T09:04:29.352Z,23.25
2023-05-04T09:06:58.845Z,23.10
2023-05-04T09:09:29.490Z,23.51
2023-05-04T09:11:59.329Z,23.25
2023-05-04T09:14:34.814Z,23.29
2023-05-04T09:17:04.391Z,23.55
2023-05-04T09:19:35.629Z,23.75
2023-05-04T09:22:15.246Z,24.14
2023-05-04T09:24:43.724Z,23.73
2023-05-04T09:27:13.501Z,24.01
2023-05-04T09:29:42.563Z,24.60
2023-05-04T09:32:14.413Z,24.01
2023-05-04T09:34:52.709Z,23.94
2023-05-04T09:37:22.341Z,23.96
2023-05-04T09:39:55.756Z,23.76
2023-05-04T09:42:24.940Z,24.21
2023-05-04T09:45:04.839Z,23.94
2023-05-04T09:47:37.012Z,24.55
2023-05-04T09:50:20.787Z,24.96
2023-05-04T09:52:50.668Z,23.92
2023-05-04T09:55:20.163Z,24.89
2023-05-04T09:57:49.671Z,25.40
2023-05-04T10:00:19.279Z,25.19
2023-05-04T10:02:49.132Z,25.20
2023-05-04T10:05:18.824Z,25.16
2023-05-04T10:07:47.449Z,24.97
2023-05-04T10:10:15.638Z,25.24
2023-05-04T10:12:45.237Z,25.06
2023-05-04T10:15:15.122Z,25.23
2023-05-04T10:18:00.326Z,25.06
2023-05-04T10:20:33.950Z,25.61
2023-05-04T10:23:30.404Z,24.61
2023-05-04T10:26:16.512Z,24.77
2023-05-04T10:29:28.730Z,25.28
2023-05-04T10:31:57.146Z,26.50
2023-05-04T10:34:28.498Z,27.48
2023-05-04T10:36:57.367Z,25.61
2023-05-04T10:39:27.690Z,26.00
2023-05-04T10:42:07.997Z,25.98
2023-05-04T10:44:49.628Z,26.81
2023-05-04T10:47:32.738Z,25.55
2023-05-04T10:50:02.454Z,25.70
2023-05-04T10:52:32.305Z,25.75
2023-05-04T10:55:02.128Z,25.06
2023-05-04T10:57:30.675Z,25.22
2023-05-04T10:59:59.471Z,26.24
2023-05-04T11:02:30.972Z,27.15
2023-05-04T11:05:07.261Z,26.82
2023-05-04T11:07:39.982Z,26.07
2023-05-04T11:10:20.542Z,26.17
2023-05-04T11:12:48.822Z,26.37
2023-05-04T11:15:18.125Z,27.35
2023-05-04T11:17:53.165Z,27.99
2023-05-04T11:20:26.613Z,27.26
2023-05-04T11:22:55.123Z,26.99
2023-05-04T11:25:30.957Z,27.48
2023-05-04T11:27:59.032Z,26.73
2023-05-04T11:30:36.826Z,26.83
2023-05-04T11:33:15.640Z,27.15
2023-05-04T11:35:45.327Z,26.88
2023-05-04T11:38:20.351Z,26.68
2023-05-04T11:40:48.762Z,26.78
2023-05-04T11:43:17.713Z,27.08
2023-05-04T11:45:48.701Z,26.93
2023-05-04T11:48:18.754Z,26.67
2023-05-04T11:50:48.208Z,26.36
2023-05-04T11:53:21.938Z,27.43
2023-05-04T11:55:52.501Z,27.32
2023-05-04T11:58:27.268Z,27.30
2023-05-04T12:00:57.450Z,27.31
2023-05-04T12:03:44.018Z,25.79
2023-05-04T12:06:34.124Z,26.27
2023-05-04T12:09:04.979Z,27.19
2023-05-04T12:11:35.939Z,26.61
2023-05-04T12:14:05.464Z,28.09
2023-05-04T12:16:34.622Z,27.90
2023-05-04T12:19:07.247Z,27.13
2023-05-04T12:21:36.307Z,25.91
2023-05-04T12:24:05.722Z,26.59
2023-05-04T12:26:34.154Z,26.51
2023-05-04T12:29:02.117Z,26.80
2023-05-04T12:31:30.667Z,27.62
2023-05-04T12:33:58.657Z,29.34
2023-05-04T12:36:27.229Z,28.34
2023-05-04T12:38:55.152Z,27.56
2023-05-04T12:41:23.565Z,28.52
2023-05-04T12:43:51.548Z,27.31
2023-05-04T12:46:22.529Z,26.73
2023-05-04T12:48:50.917Z,27.49
2023-05-04T12:51:19.193Z,27.39
2023-05-04T12:53:47.245Z,27.68
2023-05-04T12:56:15.407Z,27.79
2023-05-04T12:58:43.508Z,28.16
2023-05-04T13:01:12.198Z,26.36
2023-05-04T13:03:40.412Z,26.59
2023-05-04T13:06:09.307Z,27.71
2023-05-04T13:08:37.289Z,27.40
2023-05-04T13:11:05.659Z,27.32
2023-05-04T13:13:34.997Z,28.60
2023-05-04T13:16:03.381Z,28.02
2023-05-04T13:18:31.293Z,27.74
2023-05-04T13:20:59.896Z,27.62
2023-05-04T13:23:27.830Z,26.63
2023-05-04T13:25:56.086Z,26.53
2023-05-04T13:28:24.020Z,27.45
2023-05-04T13:30:52.329Z,26.74
2023-05-04T13:33:28.695Z,27.44
2023-05-04T13:35:58.898Z,29.77
2023-05-04T13:38:27.332Z,28.39
2023-05-04T13:40:56.337Z,27.90
2023-05-04T13:43:25.065Z,28.59
2023-05-04T13:45:53.572Z,28.23
2023-05-04T13:48:21.455Z,28.69
2023-05-04T13:50:49.737Z,27.90
2023-05-04T13:53:17.687Z,29.07
2023-05-04T13:55:46.285Z,29.12
2023-05-04T13:58:14.167Z,29.43
2023-05-04T14:00:43.506Z,28.87
2023-05-04T14:03:11.801Z,28.16
2023-05-04T14:05:40.248Z,28.30
2023-05-04T14:08:08.177Z,29.15
2023-05-04T14:10:37.639Z,29.20
2023-05-04T14:13:05.903Z,28.59
2023-05-04T14:15:34.518Z,28.50
2023-05-04T14:18:03.128Z,29.20
2023-05-04T14:20:32.410Z,29.39
2023-05-04T14:23:00.405Z,28.08
2023-05-04T14:25:28.778Z,28.30
2023-05-04T14:27:56.783Z,28.15
2023-05-04T14:30:26.693Z,28.38
2023-05-04T14:32:56.011Z,28.88
2023-05-04T14:35:24.792Z,28.03
2023-05-04T14:37:53.551Z,27.75
2023-05-04T14:40:21.925Z,28.29
2023-05-04T14:42:49.922Z,27.37
2023-05-04T14:45:18.354Z,27.42
2023-05-04T14:47:46.400Z,28.32
2023-05-04T14:50:14.687Z,28.08
2023-05-04T14:52:43.064Z,28.42
2023-05-04T14:55:11.767Z,28.34
2023-05-04T14:57:39.755Z,27.62
2023-05-04T15:00:09.583Z,27.93
2023-05-04T15:02:41.731Z,27.93
2023-05-04T15:05:12.720Z,27.86
2023-05-04T15:07:40.718Z,28.16
2023-05-04T15:10:10.601Z,28.74
2023-05-04T15:12:40.058Z,29.03
2023-05-04T15:15:09.002Z,29.84
2023-05-04T15:17:37.029Z,29.49
2023-05-04T15:20:06.920Z,29.04
2023-05-04T15:22:35.302Z,28.95
2023-05-04T15:25:04.343Z,27.69
2023-05-04T15:27:32.220Z,28.58
2023-05-04T15:30:00.662Z,28.37
2023-05-04T15:32:28.540Z,27.70
2023-05-04T15:35:04.467Z,28.26
2023-05-04T15:37:33.009Z,28.54
2023-05-04T15:40:02.352Z,28.83
2023-05-04T15:42:30.805Z,27.45
2023-05-04T15:44:59.043Z,27.89
2023-05-04T15:47:26.984Z,28.37
2023-05-04T15:49:56.208Z,28.01
2023-05-04T15:52:24.201Z,28.80
2023-05-04T15:54:52.465Z,28.79
2023-05-04T15:57:20.383Z,28.57
2023-05-04T15:59:50.321Z,28.78
2023-05-04T16:02:18.237Z,28.92
2023-05-04T16:04:46.586Z,28.31
2023-05-04T16:07:15.020Z,28.16
2023-05-04T16:09:43.468Z,27.90
2023-05-04T16:12:11.389Z,28.57
2023-05-04T16:14:40.881Z,28.45
2023-05-04T16:17:09.583Z,28.32
2023-05-04T16:19:37.878Z,28.42
2023-05-04T16:22:05.910Z,28.66
2023-05-04T16:24:34.650Z,28.83
2023-05-04T16:27:03.587Z,28.30
2023-05-04T16:29:31.871Z,28.68
2023-05-04T16:31:59.914Z,28.05
2023-05-04T16:34:28.353Z,28.02
2023-05-04T16:36:56.392Z,28.07
2023-05-04T16:39:30.529Z,27.98
2023-05-04T16:41:58.975Z,27.83
2023-05-04T16:44:27.354Z,27.96
2023-05-04T16:46:55.575Z,27.77
2023-05-04T16:49:24.131Z,27.50
2023-05-04T16:51:55.915Z,27.32
2023-05-04T16:54:24.691Z,28.10
2023-05-04T16:56:53.011Z,28.10
2023-05-04T16:59:21.412Z,27.93
2023-05-04T17:01:49.562Z,27.40
2023-05-04T17:04:18.353Z,27.01
2023-05-04T17:06:46.434Z,27.08
2023-05-04T17:09:14.744Z,27.33
2023-05-04T17:11:42.873Z,27.48
2023-05-04T17:14:11.413Z,27.06
2023-05-04T17:16:39.696Z,26.82
2023-05-04T17:19:10.766Z,27.09
2023-05-04T17:21:39.349Z,27.31
2023-05-04T17:24:07.902Z,26.95
2023-05-04T17:26:35.938Z,26.16
2023-05-04T17:29:04.829Z,25.92
2023-05-04T17:31:32.854Z,26.25
2023-05-04T17:34:01.472Z,26.50
2023-05-04T17:36:29.684Z,26.11
2023-05-04T17:38:58.614Z,26.00
2023-05-04T17:41:26.906Z,26.36
2023-05-04T17:43:56.415Z,26.07
2023-05-04T17:46:25.250Z,26.48
2023-05-04T17:48:55.024Z,26.11
2023-05-04T17:51:23.234Z,25.55
2023-05-04T17:53:51.674Z,25.28
2023-05-04T17:56:21.694Z,25.62
2023-05-04T17:58:50.012Z,25.66
2023-05-04T18:01:18.090Z,25.73
2023-05-04T18:03:46.783Z,25.51
2023-05-04T18:06:15.093Z,25.29
2023-05-04T18:08:43.483Z,25.36
2023-05-04T18:11:12.444Z,25.81
2023-05-04T18:13:41.071Z,25.66
2023-05-04T18:16:09.266Z,25.73
2023-05-04T18:18:37.904Z,25.57
2023-05-04T18:21:05.953Z,25.24
2023-05-04T18:23:34.323Z,25.15
2023-05-04T18:26:02.395Z,25.29
2023-05-04T18:28:31.039Z,25.35
2023-05-04T18:30:59.146Z,25.44
2023-05-04T18:33:27.634Z,25.48
2023-05-04T18:35:55.658Z,25.62
2023-05-04T18:38:26.524Z,25.46
2023-05-04T18:40:54.582Z,25.67
2023-05-04T18:43:22.993Z,25.18
2023-05-04T18:45:51.098Z,25.14
2023-05-04T18:48:19.523Z,24.95
2023-05-04T18:50:57.343Z,24.96
2023-05-04T18:53:26.734Z,25.00
2023-05-04T18:56:05.223Z,24.90
2023-05-04T18:58:34.457Z,24.67
2023-05-04T19:01:02.854Z,24.60
2023-05-04T19:03:31.294Z,24.84
2023-05-04T19:05:59.348Z,24.76
2023-05-04T19:08:27.654Z,24.66
2023-05-04T19:10:59.412Z,24.72
2023-05-04T19:13:28.586Z,24.71
2023-05-04T19:15:56.732Z,24.82
2023-05-04T19:18:25.201Z,24.70
2023-05-04T19:20:54.762Z,24.55
2023-05-04T19:23:23.149Z,24.53
2023-05-04T19:25:51.388Z,24.39
2023-05-04T19:28:20.342Z,24.51
2023-05-04T19:30:49.468Z,24.47
2023-05-04T19:33:18.020Z,24.21
2023-05-04T19:35:46.300Z,24.18
2023-05-04T19:38:14.884Z,24.18
2023-05-04T19:40:43.257Z,24.03
2023-05-04T19:43:11.598Z,24.56
2023-05-04T19:45:40.032Z,24.32
2023-05-04T19:48:08.528Z,24.24
2023-05-04T19:50:36.511Z,24.36
2023-05-04T19:53:04.915Z,24.55
2023-05-04T19:55:33.350Z,24.64
2023-05-04T19:58:02.465Z,24.44
2023-05-04T20:00:31.269Z,24.45
2023-05-04T20:02:59.770Z,24.48
2023-05-04T20:05:27.896Z,24.48
2023-05-04T20:07:56.736Z,24.45
2023-05-04T20:10:24.820Z,24.56
2023-05-04T20:12:53.262Z,24.48
2023-05-04T20:15:21.732Z,24.74
2023-05-04T20:17:50.168Z,24.68
2023-05-04T20:20:20.628Z,24.63
2023-05-04T20:22:52.587Z,24.48
2023-05-04T20:25:20.827Z,24.61
2023-05-04T20:27:49.423Z,24.49
2023-05-04T20:30:18.185Z,24.38
2023-05-04T20:32:48.609Z,24.32
2023-05-04T20:35:17.339Z,24.30
2023-05-04T20:37:45.804Z,24.12
2023-05-04T20:40:16.813Z,24.00
2023-05-04T20:42:45.101Z,23.86
2023-05-04T20:45:13.534Z,23.88
2023-05-04T20:47:42.906Z,23.63
2023-05-04T20:50:12.201Z,23.66
2023-05-04T20:52:40.478Z,23.46
2023-05-04T20:55:09.391Z,23.32
2023-05-04T20:57:37.734Z,23.42
2023-05-04T21:00:07.285Z,23.89
2023-05-04T21:02:36.234Z,23.81
2023-05-04T21:05:04.760Z,23.56
2023-05-04T21:07:33.286Z,23.41
2023-05-04T21:10:01.317Z,23.51
2023-05-04T21:12:30.229Z,23.46
2023-05-04T21:14:59.049Z,23.11
2023-05-04T21:17:27.634Z,23.49
2023-05-04T21:19:55.626Z,23.33
2023-05-04T21:22:23.930Z,23.30
2023-05-04T21:24:52.103Z,23.16
2023-05-04T21:27:20.367Z,23.15
2023-05-04T21:29:48.383Z,23.10
2023-05-04T21:32:16.752Z,22.97
2023-05-04T21:34:44.728Z,23.16
2023-05-04T21:37:13.343Z,23.27
2023-05-04T21:39:41.554Z,23.06
2023-05-04T21:42:10.044Z,23.01
2023-05-04T21:44:38.178Z,23.19
2023-05-04T21:47:07.430Z,22.88
2023-05-04T21:50:22.454Z,22.87
2023-05-04T21:52:51.134Z,22.80
2023-05-04T21:55:19.923Z,23.10
2023-05-04T21:57:48.927Z,22.70
2023-05-04T22:00:20.719Z,22.70
2023-05-04T22:02:49.309Z,22.71
2023-05-04T22:05:22.369Z,22.68
2023-05-04T22:07:51.028Z,22.67
2023-05-04T22:10:19.195Z,22.68
2023-05-04T22:12:47.919Z,22.75
2023-05-04T22:15:16.635Z,22.72
2023-05-04T22:17:45.636Z,22.68
2023-05-04T22:20:14.038Z,22.58
2023-05-04T22:22:42.676Z,22.50
2023-05-04T22:25:11.302Z,22.41
2023-05-04T22:27:39.956Z,22.44
2023-05-04T22:30:08.948Z,22.39
2023-05-04T22:32:38.291Z,22.24
2023-05-04T22:35:06.841Z,21.83
2023-05-04T22:37:35.501Z,21.99
2023-05-04T22:40:07.715Z,21.77
2023-05-04T22:42:36.953Z,21.77
2023-05-04T22:45:05.623Z,21.99
2023-05-04T22:47:34.230Z,21.81
2023-05-04T22:50:02.485Z,21.61
2023-05-04T22:52:31.442Z,21.69
2023-05-04T22:54:59.613Z,21.39
2023-05-04T22:57:28.292Z,21.35
2023-05-04T22:59:56.717Z,21.72
2023-05-04T23:02:25.695Z,21.72
2023-05-04T23:04:54.198Z,21.79
2023-05-04T23:07:22.784Z,21.57
2023-05-04T23:09:50.992Z,21.55
2023-05-04T23:12:19.842Z,21.58
2023-05-04T23:14:52.597Z,21.86
2023-05-04T23:17:24.576Z,21.63
2023-05-04T23:19:52.805Z,21.37
2023-05-04T23:22:21.662Z,21.31
2023-05-04T23:24:49.849Z,21.36
2023-05-04T23:27:18.936Z,21.36
2023-05-04T23:29:47.111Z,21.26
2023-05-04T23:32:15.942Z,21.22
2023-05-04T23:34:44.170Z,21.17
2023-05-04T23:37:12.670Z,21.32
2023-05-04T23:39:41.029Z,21.10
2023-05-04T23:42:09.451Z,21.16
2023-05-04T23:44:37.705Z,20.91
2023-05-04T23:47:06.380Z,21.05
2023-05-04T23:49:34.625Z,20.83
2023-05-04T23:52:03.179Z,20.70
2023-05-04T23:54:32.004Z,20.49
2023-05-04T23:57:00.782Z,20.81
2023-05-04T23:59:28.951Z,20.75
